This is the latest recevied weather packets stored in our database for station/object WX2P-13. If no packets are shown the sender has not sent any weather packets the latest 10 day(s).
| Time | Temp. | Humidity | Pressure | Rain* | Wind** | Luminosity | Snow |
|---|---|---|---|---|---|---|---|
| 1777689956 | 21.11° C | 94% | 1011.7 hPa | 0 mm | - | 0 W/m² | - |
| 1777689654 | 21.67° C | 94% | 1011.7 hPa | 0 mm | - | 0 W/m² | - |
| 1777689352 | 21.67° C | 94% | 1011.9 hPa | 0 mm | - | 0 W/m² | - |
| 1777689049 | 21.67° C | 94% | 1011.9 hPa | 0 mm | - | 0 W/m² | - |
| 1777688745 | 21.67° C | 93% | 1012 hPa | 0 mm | - | 0 W/m² | - |
| 1777688443 | 21.67° C | 93% | 1012 hPa | 0 mm | - | 0 W/m² | - |
| 1777688140 | 21.67° C | 93% | 1012 hPa | 0 mm | - | 0 W/m² | - |
| 1777687535 | 22.22° C | 92% | 1011.9 hPa | 0 mm | - | 0 W/m² | - |
| 1777673898 | 27.22° C | 74% | 1010.7 hPa | 0 mm | - | 70 W/m² | - |
| 1777673595 | 27.78° C | 74% | 1010.8 hPa | 0 mm | - | 190 W/m² | - |
| 1777671469 | 28.33° C | 68% | 1010.7 hPa | 0 mm | - | 90 W/m² | - |
| 1777671166 | 28.33° C | 69% | 1010.9 hPa | 0 mm | - | 100 W/m² | - |
| 1777670559 | 28.33° C | 66% | 1011.1 hPa | 0 mm | - | 83 W/m² | - |
| 1777670256 | 28.89° C | 64% | 1010.9 hPa | 0 mm | - | 100 W/m² | - |
| 1777669953 | 28.89° C | 65% | 1010.7 hPa | 0 mm | - | 115 W/m² | - |
| 1777669650 | 28.89° C | 65% | 1010.6 hPa | 0 mm | - | 83 W/m² | - |
| 1777669347 | 28.89° C | 65% | 1010.8 hPa | 0 mm | - | 55 W/m² | - |
| 1777669043 | 28.89° C | 65% | 1010.8 hPa | 0 mm | - | 64 W/m² | - |
| 1777668740 | 28.89° C | 66% | 1010.8 hPa | 0 mm | - | 54 W/m² | - |
| 1777668437 | 28.89° C | 66% | 1010.7 hPa | 0 mm | - | 56 W/m² | - |
| 1777668134 | 28.89° C | 65% | 1010.8 hPa | 0 mm | - | 81 W/m² | - |
| 1777667830 | 28.89° C | 66% | 1010.4 hPa | 0 mm | - | 70 W/m² | - |
| 1777667528 | 28.89° C | 66% | 1010.5 hPa | 0 mm | - | 101 W/m² | - |
| 1777667224 | 28.33° C | 68% | 1010.7 hPa | 0 mm | - | 309 W/m² | - |
| 1777666921 | 27.78° C | 69% | 1010.7 hPa | 0 mm | - | 184 W/m² | - |
* Rain latest hour (hover to see other rain measurements)
** Current wind speed in m/s (hover to see current wind gust speed)